Time;durP1;ratioP1;P1;durP2;ratioP2;P2;SDS_P1;SDS_P2;PMS_P1;PMS_P2;Temp;Humidity;BMP_temperature;BMP_pressure;BME280_temperature;BME280_humidity;BME280_pressure;Samples;Min_cycle;Max_cycle;Signal;HPM_P1;HPM_P2
2022/02/06 00:02:22;;;;;;;;;;;23.40;99.90;;;;;;5074366;28;20398;-73
2022/02/06 00:04:49;;;;;;;;;;;23.40;99.90;;;;;;5074081;28;20050;-73
2022/02/06 00:07:16;;;;;;;;;;;23.60;99.90;;;;;;5073995;28;19999;-74
2022/02/06 00:09:45;;;;;;;;;;;23.70;99.90;;;;;;5073921;28;19916;-74
2022/02/06 00:12:12;;;;;;;;;;;23.80;99.90;;;;;;5074084;28;19963;-73
2022/02/06 00:14:39;;;;;;;;;;;23.90;99.90;;;;;;5073835;28;20227;-73
2022/02/06 00:17:06;;;;;;;;;;;23.80;99.90;;;;;;5073957;28;20417;-73
2022/02/06 00:19:33;;;;;;;;;;;23.70;99.90;;;;;;5074020;28;19958;-73
2022/02/06 00:22:03;;;;;;;;;;;23.90;99.90;;;;;;5073428;28;19916;-74
2022/02/06 00:24:46;;;;;;;;;;;23.90;99.90;;;;;;5073621;28;19916;-74
2022/02/06 00:27:25;;;;;;;;;;;23.90;99.90;;;;;;5073634;28;20385;-73
2022/02/06 00:29:58;;;;;;;;;;;23.60;99.90;;;;;;5073766;28;19953;-73
2022/02/06 00:32:32;;;;;;;;;;;23.50;99.90;;;;;;5073587;28;19908;-73
2022/02/06 00:38:09;;;;;;;;;;;23.50;99.90;;;;;;5073317;28;20314;-74
2022/02/06 00:43:05;;;;;;;;;;;23.50;99.90;;;;;;5073477;28;19909;-74
2022/02/06 00:45:32;;;;;;;;;;;23.60;99.90;;;;;;5073429;28;20008;-73
2022/02/06 00:47:59;;;;;;;;;;;23.60;99.90;;;;;;5073384;28;19947;-74
2022/02/06 00:50:26;;;;;;;;;;;23.80;99.90;;;;;;5073502;28;20379;-73
2022/02/06 00:53:09;;;;;;;;;;;24.00;99.90;;;;;;5073208;28;19958;-74
2022/02/06 00:55:35;;;;;;;;;;;24.10;99.90;;;;;;5073312;28;19908;-73
2022/02/06 00:58:02;;;;;;;;;;;24.00;99.90;;;;;;5073026;28;19912;-73
2022/02/06 01:00:28;;;;;;;;;;;24.10;99.90;;;;;;5072981;28;19966;-73
2022/02/06 01:02:55;;;;;;;;;;;24.30;99.90;;;;;;5072962;28;19935;-73
2022/02/06 01:05:22;;;;;;;;;;;24.60;99.90;;;;;;5073168;28;19916;-73
2022/02/06 01:07:50;;;;;;;;;;;24.70;99.90;;;;;;5072552;28;20015;-73
2022/02/06 01:10:17;;;;;;;;;;;24.50;99.90;;;;;;5072991;28;20313;-74
2022/02/06 01:12:55;;;;;;;;;;;24.60;99.90;;;;;;5072986;28;20275;-74
2022/02/06 01:15:30;;;;;;;;;;;25.00;99.10;;;;;;5072939;28;19962;-74
2022/02/06 01:18:05;;;;;;;;;;;24.80;99.40;;;;;;5072631;28;19967;-74
2022/02/06 01:23:04;;;;;;;;;;;24.30;99.90;;;;;;5072788;28;19912;-74
2022/02/06 01:25:38;;;;;;;;;;;24.30;99.90;;;;;;5073004;28;19944;-74
2022/02/06 01:28:10;;;;;;;;;;;24.60;99.90;;;;;;5072743;28;19954;-74
2022/02/06 01:30:47;;;;;;;;;;;25.20;99.40;;;;;;5072834;28;19931;-74
2022/02/06 01:33:19;;;;;;;;;;;25.50;99.50;;;;;;5072655;28;19982;-73
2022/02/06 01:35:54;;;;;;;;;;;25.70;99.40;;;;;;5072529;28;19916;-73
2022/02/06 01:38:33;;;;;;;;;;;25.40;99.50;;;;;;5072464;28;19915;-74
2022/02/06 01:41:08;;;;;;;;;;;24.90;99.20;;;;;;5072560;28;20037;-74
2022/02/06 01:43:42;;;;;;;;;;;24.50;99.90;;;;;;5072646;28;19989;-74
2022/02/06 01:57:28;;;;;;;;;;;23.20;99.90;;;;;;5072371;28;20392;-74
2022/02/06 02:11:06;;;;;;;;;;;21.20;99.90;;;;;;5072408;28;19909;-76
2022/02/06 02:26:58;;;;;;;;;;;22.30;99.90;;;;;;5072132;28;19957;-75
2022/02/06 02:43:29;;;;;;;;;;;23.20;99.90;;;;;;5071286;28;19915;-74
2022/02/06 02:46:02;;;;;;;;;;;23.30;99.90;;;;;;5072411;28;19924;-74
2022/02/06 02:48:29;;;;;;;;;;;23.30;99.90;;;;;;5071851;28;19908;-75
2022/02/06 02:51:01;;;;;;;;;;;23.50;99.90;;;;;;5071796;28;19920;-75
2022/02/06 03:01:22;;;;;;;;;;;23.40;99.90;;;;;;5075343;28;20346;-74
2022/02/06 03:03:49;;;;;;;;;;;23.50;99.90;;;;;;5075238;28;19916;-73
2022/02/06 03:06:15;;;;;;;;;;;23.50;99.90;;;;;;5075481;28;19913;-75
2022/02/06 03:08:44;;;;;;;;;;;23.70;99.90;;;;;;5075250;28;19916;-74
2022/02/06 03:11:11;;;;;;;;;;;23.60;99.90;;;;;;5075151;28;20423;-75
2022/02/06 03:13:56;;;;;;;;;;;23.40;99.90;;;;;;5074730;28;20364;-73
2022/02/06 03:16:30;;;;;;;;;;;22.50;99.90;;;;;;5075449;28;19908;-75
2022/02/06 03:21:27;;;;;;;;;;;20.40;99.90;;;;;;5075001;28;19955;-76
2022/02/06 03:23:56;;;;;;;;;;;20.10;99.90;;;;;;5074878;28;19912;-77
2022/02/06 03:26:24;;;;;;;;;;;19.80;99.90;;;;;;5075135;28;20024;-76
2022/02/06 03:28:53;;;;;;;;;;;19.60;99.90;;;;;;5074296;28;19908;-76
2022/02/06 03:31:19;;;;;;;;;;;19.70;99.90;;;;;;5074871;28;20309;-76
2022/02/06 03:33:48;;;;;;;;;;;19.80;99.90;;;;;;5074537;28;20377;-75
2022/02/06 03:36:15;;;;;;;;;;;20.00;99.90;;;;;;5074508;28;19934;-76
2022/02/06 03:38:42;;;;;;;;;;;20.00;99.90;;;;;;5074481;28;20008;-74
2022/02/06 03:41:11;;;;;;;;;;;19.90;99.90;;;;;;5074588;28;19909;-75
2022/02/06 03:46:15;;;;;;;;;;;19.80;99.90;;;;;;5074525;28;19908;-76
2022/02/06 03:48:52;;;;;;;;;;;19.80;99.90;;;;;;5074651;28;19915;-75
2022/02/06 03:51:30;;;;;;;;;;;20.10;99.90;;;;;;5074914;28;19916;-75
2022/02/06 03:53:56;;;;;;;;;;;20.10;99.90;;;;;;5074384;28;19999;-76
2022/02/06 03:56:26;;;;;;;;;;;20.30;99.90;;;;;;5074406;28;20294;-75
2022/02/06 03:58:53;;;;;;;;;;;20.40;99.90;;;;;;5073603;28;19920;-75
2022/02/06 04:01:19;;;;;;;;;;;20.50;99.90;;;;;;5073991;28;20004;-76
2022/02/06 04:03:46;;;;;;;;;;;20.60;99.90;;;;;;5073926;28;20439;-75
2022/02/06 04:06:12;;;;;;;;;;;20.80;99.90;;;;;;5074025;28;19962;-76
2022/02/06 04:08:40;;;;;;;;;;;21.20;99.90;;;;;;5073814;28;19908;-75
2022/02/06 04:11:13;;;;;;;;;;;21.30;99.90;;;;;;5074055;28;19916;-75
2022/02/06 04:14:27;;;;;;;;;;;21.40;99.90;;;;;;5074021;28;19908;-75
2022/02/06 04:16:37;;;;;;;;;;;21.60;99.90;;;;;;5076972;28;19912;-74
2022/02/06 04:19:16;;;;;;;;;;;21.90;99.90;;;;;;5074067;28;19969;-75
2022/02/06 04:21:42;;;;;;;;;;;22.10;99.90;;;;;;5073299;28;19915;-74
2022/02/06 04:24:09;;;;;;;;;;;22.30;99.90;;;;;;5073626;28;19919;-73
2022/02/06 04:26:36;;;;;;;;;;;22.40;99.90;;;;;;5073977;28;20298;-74
2022/02/06 04:29:04;;;;;;;;;;;22.70;99.90;;;;;;5073620;28;19908;-74
2022/02/06 04:31:30;;;;;;;;;;;22.70;99.90;;;;;;5073562;28;20344;-74
2022/02/06 04:33:57;;;;;;;;;;;22.70;99.90;;;;;;5073276;28;19909;-74
2022/02/06 04:36:30;;;;;;;;;;;22.60;99.90;;;;;;5073317;28;19962;-74
2022/02/06 04:39:15;;;;;;;;;;;22.90;99.90;;;;;;5073512;28;19912;-73
2022/02/06 04:41:59;;;;;;;;;;;22.80;99.90;;;;;;5073200;28;20244;-73
2022/02/06 04:44:53;;;;;;;;;;;22.70;99.90;;;;;;5073235;28;19928;-73
2022/02/06 04:48:00;;;;;;;;;;;22.70;99.90;;;;;;5073501;28;19909;-73
2022/02/06 04:51:00;;;;;;;;;;;22.80;99.90;;;;;;5073114;28;20282;-73
2022/02/06 05:15:00;;;;;;;;;;;22.70;99.90;;;;;;5072962;28;20024;-74
2022/02/06 05:30:50;;;;;;;;;;;22.90;99.90;;;;;;5072482;28;19927;-73
2022/02/06 05:33:17;;;;;;;;;;;22.70;99.90;;;;;;5072717;28;19909;-72
2022/02/06 05:35:44;;;;;;;;;;;22.50;99.90;;;;;;5072026;28;19940;-72
2022/02/06 05:38:11;;;;;;;;;;;22.40;99.90;;;;;;5072555;28;19913;-73
2022/02/06 05:40:37;;;;;;;;;;;22.20;99.90;;;;;;5072623;28;19916;-73
2022/02/06 05:43:04;;;;;;;;;;;22.10;99.90;;;;;;5072410;28;19954;-73
2022/02/06 05:45:31;;;;;;;;;;;21.90;99.90;;;;;;5072605;28;20019;-73
2022/02/06 05:47:57;;;;;;;;;;;21.00;99.90;;;;;;5072232;28;19909;-73
2022/02/06 05:50:24;;;;;;;;;;;20.50;99.90;;;;;;5072218;28;19908;-72
2022/02/06 05:52:51;;;;;;;;;;;20.00;99.90;;;;;;5072443;28;19912;-73
2022/02/06 05:55:18;;;;;;;;;;;20.00;99.90;;;;;;5072343;28;19908;-73
2022/02/06 05:57:45;;;;;;;;;;;19.90;99.90;;;;;;5072413;28;19912;-74
2022/02/06 06:00:12;;;;;;;;;;;20.00;99.90;;;;;;5072202;28;19959;-74
2022/02/06 06:02:39;;;;;;;;;;;20.00;99.90;;;;;;5072234;28;19908;-74
2022/02/06 06:05:05;;;;;;;;;;;20.30;99.90;;;;;;5072105;28;20386;-74
2022/02/06 06:07:32;;;;;;;;;;;20.40;99.90;;;;;;5072330;28;20315;-73
2022/02/06 06:09:59;;;;;;;;;;;20.60;99.90;;;;;;5072042;28;20286;-74
2022/02/06 06:12:25;;;;;;;;;;;20.90;99.90;;;;;;5072500;28;20370;-74
2022/02/06 06:14:52;;;;;;;;;;;20.80;99.90;;;;;;5072273;28;19995;-73
2022/02/06 06:17:19;;;;;;;;;;;20.50;99.90;;;;;;5072173;28;19909;-73
2022/02/06 06:19:48;;;;;;;;;;;20.30;99.90;;;;;;5072252;28;19908;-73
2022/02/06 06:22:18;;;;;;;;;;;20.20;99.90;;;;;;5072108;28;19909;-74
2022/02/06 06:24:50;;;;;;;;;;;20.10;99.90;;;;;;5071885;28;19920;-75
2022/02/06 06:27:17;;;;;;;;;;;20.00;99.90;;;;;;5072081;28;19909;-75
2022/02/06 06:29:44;;;;;;;;;;;20.20;99.90;;;;;;5072065;28;19997;-74
2022/02/06 06:32:11;;;;;;;;;;;20.50;99.90;;;;;;5072343;28;19915;-73
2022/02/06 06:34:37;;;;;;;;;;;20.80;99.90;;;;;;5076021;28;19932;-74
2022/02/06 06:37:04;;;;;;;;;;;21.10;99.90;;;;;;5075842;28;20244;-74
2022/02/06 06:39:52;;;;;;;;;;;21.20;99.90;;;;;;5076189;28;19947;-74
2022/02/06 06:42:17;;;;;;;;;;;21.30;99.90;;;;;;5075617;28;19908;-74
2022/02/06 06:44:44;;;;;;;;;;;21.50;99.90;;;;;;5075890;28;19917;-74
2022/02/06 06:47:11;;;;;;;;;;;21.60;99.90;;;;;;5075674;28;20278;-75
2022/02/06 06:49:37;;;;;;;;;;;21.70;99.90;;;;;;5075428;28;20278;-74
2022/02/06 06:52:05;;;;;;;;;;;21.70;99.90;;;;;;5075350;28;19913;-75
2022/02/06 06:54:38;;;;;;;;;;;21.70;99.90;;;;;;5074975;28;19915;-73
2022/02/06 06:57:12;;;;;;;;;;;21.70;99.90;;;;;;5075401;28;19909;-75
2022/02/06 07:04:53;;;;;;;;;;;21.60;99.90;;;;;;5075184;28;20354;-75
2022/02/06 07:07:20;;;;;;;;;;;21.60;99.90;;;;;;5075160;28;20447;-74
2022/02/06 07:09:46;;;;;;;;;;;21.60;99.90;;;;;;5074551;28;20298;-74
2022/02/06 07:12:13;;;;;;;;;;;21.60;99.90;;;;;;5075353;28;19923;-75
2022/02/06 07:14:40;;;;;;;;;;;21.50;99.90;;;;;;5075209;28;19920;-74
2022/02/06 07:17:07;;;;;;;;;;;21.60;99.90;;;;;;5075654;28;20371;-75
2022/02/06 07:19:43;;;;;;;;;;;21.60;99.90;;;;;;5075278;28;19918;-74
2022/02/06 07:22:14;;;;;;;;;;;21.60;99.90;;;;;;5074949;28;19908;-75
2022/02/06 07:24:41;;;;;;;;;;;21.60;99.90;;;;;;5075107;28;19920;-74
2022/02/06 07:27:29;;;;;;;;;;;21.70;99.90;;;;;;5075360;28;19935;-75
2022/02/06 07:29:57;;;;;;;;;;;21.70;99.90;;;;;;5074972;28;19908;-75
2022/02/06 07:32:24;;;;;;;;;;;21.80;99.90;;;;;;5075140;28;20278;-74
2022/02/06 07:34:51;;;;;;;;;;;21.40;99.90;;;;;;5074734;28;20271;-74
2022/02/06 07:37:18;;;;;;;;;;;20.70;99.90;;;;;;5075090;28;19908;-73
2022/02/06 07:39:44;;;;;;;;;;;20.10;99.90;;;;;;5074662;28;20361;-74
2022/02/06 07:42:12;;;;;;;;;;;19.70;99.90;;;;;;5074783;28;19909;-74
2022/02/06 07:44:38;;;;;;;;;;;19.30;99.90;;;;;;5074257;28;19923;-74
2022/02/06 07:47:16;;;;;;;;;;;19.10;99.90;;;;;;5074642;28;19913;-74
2022/02/06 07:49:46;;;;;;;;;;;18.90;99.90;;;;;;5074944;28;19913;-75
2022/02/06 07:52:13;;;;;;;;;;;18.90;99.90;;;;;;5074621;28;19909;-75
2022/02/06 07:54:40;;;;;;;;;;;19.00;99.90;;;;;;5074618;28;20351;-75
2022/02/06 07:57:07;;;;;;;;;;;19.00;99.90;;;;;;5074496;28;19912;-75
2022/02/06 07:59:35;;;;;;;;;;;19.00;99.90;;;;;;5074357;28;19989;-75
2022/02/06 08:02:02;;;;;;;;;;;19.10;99.90;;;;;;5074408;28;19908;-76
2022/02/06 08:04:29;;;;;;;;;;;19.10;99.90;;;;;;5074216;28;19916;-76
2022/02/06 08:06:56;;;;;;;;;;;19.00;99.90;;;;;;5074549;28;20314;-75
2022/02/06 08:09:46;;;;;;;;;;;19.10;99.90;;;;;;5074350;28;20268;-76
2022/02/06 08:12:09;;;;;;;;;;;19.10;99.90;;;;;;5074036;28;19912;-76
2022/02/06 08:14:54;;;;;;;;;;;19.10;99.90;;;;;;5074069;28;19966;-75
2022/02/06 08:17:31;;;;;;;;;;;19.30;99.90;;;;;;5074250;28;19912;-75
2022/02/06 08:19:59;;;;;;;;;;;19.30;99.90;;;;;;5073979;28;19997;-75
2022/02/06 08:22:26;;;;;;;;;;;19.30;99.90;;;;;;5073916;28;19959;-75
2022/02/06 08:24:53;;;;;;;;;;;19.50;99.90;;;;;;5073916;28;20050;-75
2022/02/06 08:27:20;;;;;;;;;;;19.50;99.90;;;;;;5074098;28;19991;-75
2022/02/06 08:29:48;;;;;;;;;;;19.60;99.90;;;;;;5073336;28;19912;-75
2022/02/06 08:32:15;;;;;;;;;;;19.50;99.90;;;;;;5073922;28;19908;-75
2022/02/06 08:34:42;;;;;;;;;;;19.70;99.90;;;;;;5072481;28;20855;-74
2022/02/06 08:37:09;;;;;;;;;;;19.80;99.90;;;;;;5073796;28;20325;-74
2022/02/06 08:39:36;;;;;;;;;;;19.70;99.90;;;;;;5073692;28;19909;-75
2022/02/06 08:42:06;;;;;;;;;;;19.80;99.90;;;;;;5105632;28;19912;-75
2022/02/06 08:44:33;;;;;;;;;;;19.90;99.90;;;;;;5073430;28;19912;-75
2022/02/06 08:47:00;;;;;;;;;;;20.00;99.90;;;;;;5073522;28;19916;-75
2022/02/06 08:49:27;;;;;;;;;;;20.10;99.90;;;;;;5073421;28;19978;-76
2022/02/06 08:51:54;;;;;;;;;;;20.10;99.90;;;;;;5073459;28;20387;-75
2022/02/06 08:54:28;;;;;;;;;;;20.10;99.90;;;;;;5073360;28;19909;-75
2022/02/06 08:57:01;;;;;;;;;;;20.10;99.90;;;;;;5073219;28;19915;-75
2022/02/06 08:59:30;;;;;;;;;;;20.00;99.90;;;;;;5073145;28;19920;-75
2022/02/06 09:02:01;;;;;;;;;;;20.00;99.90;;;;;;5072879;28;19908;-75
2022/02/06 09:04:28;;;;;;;;;;;20.10;99.90;;;;;;5073137;28;19913;-75
2022/02/06 09:06:58;;;;;;;;;;;20.10;99.90;;;;;;5072741;28;19908;-74
2022/02/06 09:09:25;;;;;;;;;;;20.20;99.90;;;;;;5073263;28;19977;-76
2022/02/06 09:11:52;;;;;;;;;;;20.20;99.90;;;;;;5072872;28;20275;-74
2022/02/06 09:14:24;;;;;;;;;;;20.20;99.90;;;;;;5073048;28;19920;-75
2022/02/06 09:16:51;;;;;;;;;;;20.20;99.90;;;;;;5072940;28;19915;-75
2022/02/06 09:19:18;;;;;;;;;;;20.30;99.90;;;;;;5072637;28;19908;-75
2022/02/06 09:21:45;;;;;;;;;;;20.30;99.90;;;;;;5072324;28;19962;-76
2022/02/06 09:24:12;;;;;;;;;;;20.40;99.90;;;;;;5072988;28;19914;-76
2022/02/06 09:26:39;;;;;;;;;;;20.40;99.90;;;;;;5072478;28;20272;-75
2022/02/06 09:29:06;;;;;;;;;;;20.40;99.90;;;;;;5072131;28;20321;-76
2022/02/06 09:31:33;;;;;;;;;;;20.40;99.90;;;;;;5092697;28;19915;-76
2022/02/06 09:36:26;;;;;;;;;;;20.40;99.90;;;;;;5093102;28;20373;-75
2022/02/06 09:38:53;;;;;;;;;;;20.40;99.90;;;;;;5092260;28;19962;-75
2022/02/06 09:41:20;;;;;;;;;;;20.40;99.90;;;;;;5092896;28;19915;-75
2022/02/06 09:43:47;;;;;;;;;;;20.30;99.90;;;;;;5092499;28;19909;-75
2022/02/06 09:46:15;;;;;;;;;;;20.40;99.90;;;;;;5092635;28;20267;-75
2022/02/06 09:48:43;;;;;;;;;;;20.40;99.90;;;;;;5092503;28;20243;-75
2022/02/06 09:51:10;;;;;;;;;;;20.50;99.90;;;;;;5092656;28;19969;-75
2022/02/06 09:53:37;;;;;;;;;;;20.60;99.90;;;;;;5092182;28;19958;-75
2022/02/06 09:56:12;;;;;;;;;;;20.60;99.90;;;;;;5092649;28;19912;-75
2022/02/06 10:01:17;;;;;;;;;;;20.60;99.90;;;;;;5092519;28;20389;-75
2022/02/06 10:03:46;;;;;;;;;;;20.60;99.90;;;;;;5092560;28;19912;-75
2022/02/06 10:06:23;;;;;;;;;;;20.60;99.90;;;;;;5093703;28;20412;-76
2022/02/06 10:08:56;;;;;;;;;;;20.50;99.90;;;;;;5098666;28;20327;-76
2022/02/06 10:11:23;;;;;;;;;;;20.50;99.90;;;;;;5099204;28;20281;-75
2022/02/06 10:13:50;;;;;;;;;;;20.30;99.90;;;;;;5098937;28;19961;-75
2022/02/06 10:16:17;;;;;;;;;;;19.90;99.90;;;;;;5099224;28;19908;-75
2022/02/06 10:18:45;;;;;;;;;;;19.40;99.90;;;;;;5098984;28;19981;-75
2022/02/06 10:21:22;;;;;;;;;;;19.10;99.90;;;;;;5099263;28;19912;-75
2022/02/06 10:24:00;;;;;;;;;;;18.90;99.90;;;;;;5098400;28;19995;-76
2022/02/06 10:26:53;;;;;;;;;;;18.60;99.90;;;;;;5099259;28;20362;-76
2022/02/06 10:31:54;;;;;;;;;;;18.30;99.90;;;;;;5098971;28;20263;-77
2022/02/06 10:34:27;;;;;;;;;;;18.20;99.90;;;;;;5098861;28;19916;-76
2022/02/06 10:37:11;;;;;;;;;;;18.00;99.90;;;;;;5098993;28;19995;-73
2022/02/06 10:39:40;;;;;;;;;;;17.80;99.90;;;;;;5098667;28;19908;-72
2022/02/06 10:42:26;;;;;;;;;;;17.80;99.90;;;;;;5098893;28;19908;-73
2022/02/06 10:45:11;;;;;;;;;;;18.00;99.90;;;;;;5098899;28;19916;-73
2022/02/06 10:47:38;;;;;;;;;;;18.10;99.90;;;;;;5097463;28;19989;-73
2022/02/06 10:50:07;;;;;;;;;;;18.20;99.90;;;;;;5117586;28;19998;-73
2022/02/06 10:52:33;;;;;;;;;;;18.20;99.90;;;;;;5113314;27;19973;-73
2022/02/06 10:55:00;;;;;;;;;;;18.30;99.90;;;;;;5098975;28;19931;-73
2022/02/06 10:57:28;;;;;;;;;;;18.40;99.90;;;;;;5098733;28;19908;-74
2022/02/06 10:59:56;;;;;;;;;;;18.40;99.90;;;;;;5097707;28;19920;-73
2022/02/06 11:02:24;;;;;;;;;;;18.40;99.90;;;;;;5096968;28;19945;-74
2022/02/06 11:04:55;;;;;;;;;;;18.40;99.90;;;;;;5096924;28;19918;-74
2022/02/06 11:07:22;;;;;;;;;;;18.40;99.90;;;;;;5097122;28;19912;-73
2022/02/06 11:09:49;;;;;;;;;;;18.40;99.90;;;;;;5096886;28;19908;-73
2022/02/06 11:12:20;;;;;;;;;;;18.30;99.90;;;;;;5097653;28;19950;-73
2022/02/06 11:14:47;;;;;;;;;;;18.20;99.90;;;;;;5097899;28;19962;-73
2022/02/06 11:17:15;;;;;;;;;;;18.30;99.90;;;;;;5079079;28;19927;-73
2022/02/06 11:20:02;;;;;;;;;;;18.20;99.90;;;;;;5074536;28;19908;-73
2022/02/06 11:22:30;;;;;;;;;;;18.20;99.90;;;;;;5074993;28;19908;-73
2022/02/06 11:24:56;;;;;;;;;;;18.10;99.90;;;;;;5074843;28;20367;-73
2022/02/06 11:27:23;;;;;;;;;;;18.10;99.90;;;;;;5074832;28;19912;-73
2022/02/06 11:29:50;;;;;;;;;;;18.00;99.90;;;;;;5074578;28;19908;-73
2022/02/06 11:32:17;;;;;;;;;;;18.00;99.90;;;;;;5075106;28;19961;-73
2022/02/06 11:34:44;;;;;;;;;;;17.90;99.90;;;;;;5074888;28;20428;-73
2022/02/06 11:45:55;;;;;;;;;;;18.10;99.90;;;;;;5074822;28;19962;-72
2022/02/06 11:48:23;;;;;;;;;;;18.00;99.90;;;;;;5074824;28;19916;-72
2022/02/06 11:50:51;;;;;;;;;;;18.00;99.90;;;;;;5074755;28;19908;-73
2022/02/06 11:53:28;;;;;;;;;;;18.10;99.90;;;;;;5074694;28;19908;-72
2022/02/06 11:55:56;;;;;;;;;;;18.10;99.90;;;;;;5074395;28;19931;-73
2022/02/06 11:58:26;;;;;;;;;;;18.20;99.90;;;;;;5074616;28;19912;-73
2022/02/06 12:01:08;;;;;;;;;;;18.20;99.90;;;;;;5074705;28;19924;-73
2022/02/06 12:04:01;;;;;;;;;;;18.30;99.90;;;;;;5074434;28;19939;-73
2022/02/06 12:06:32;;;;;;;;;;;18.20;99.90;;;;;;5065979;28;20034;-72
2022/02/06 12:08:58;;;;;;;;;;;18.20;99.90;;;;;;5074621;28;19908;-73
2022/02/06 12:11:26;;;;;;;;;;;18.30;99.90;;;;;;5074395;28;19908;-73
2022/02/06 12:14:08;;;;;;;;;;;18.30;99.90;;;;;;5074092;28;20275;-74
2022/02/06 12:16:49;;;;;;;;;;;18.30;99.90;;;;;;5074206;28;19919;-73
2022/02/06 12:19:30;;;;;;;;;;;18.30;99.90;;;;;;5074100;28;19908;-73
2022/02/06 12:21:58;;;;;;;;;;;18.30;99.90;;;;;;5073797;28;19909;-73
2022/02/06 12:24:38;;;;;;;;;;;18.30;99.90;;;;;;5073894;28;20022;-73
2022/02/06 12:27:31;;;;;;;;;;;18.40;99.90;;;;;;5073970;28;19954;-73
2022/02/06 12:29:58;;;;;;;;;;;18.40;99.90;;;;;;5071473;28;19909;-73
2022/02/06 12:32:29;;;;;;;;;;;18.50;99.90;;;;;;5073936;28;20020;-73
2022/02/06 12:37:41;;;;;;;;;;;18.50;99.90;;;;;;5074212;28;19962;-72
2022/02/06 12:40:15;;;;;;;;;;;18.50;99.90;;;;;;5073625;28;19916;-72
2022/02/06 12:42:43;;;;;;;;;;;18.40;99.90;;;;;;5073571;28;20284;-72
2022/02/06 12:45:14;;;;;;;;;;;18.30;99.90;;;;;;5073302;28;19923;-72
2022/02/06 12:47:42;;;;;;;;;;;18.20;99.90;;;;;;5073484;28;20286;-73
2022/02/06 12:50:13;;;;;;;;;;;18.20;99.90;;;;;;5073197;28;20329;-72
2022/02/06 12:52:40;;;;;;;;;;;18.10;99.90;;;;;;5073361;28;20282;-72
2022/02/06 12:55:07;;;;;;;;;;;18.20;99.90;;;;;;5073541;28;19909;-73
2022/02/06 12:58:06;;;;;;;;;;;18.10;99.90;;;;;;5073531;28;19912;-73
2022/02/06 13:00:34;;;;;;;;;;;18.10;99.90;;;;;;5034382;28;19936;-72
2022/02/06 13:03:27;;;;;;;;;;;17.90;99.90;;;;;;5033162;28;19933;-72
2022/02/06 13:05:58;;;;;;;;;;;17.80;99.90;;;;;;5032588;28;20012;-72
2022/02/06 13:08:25;;;;;;;;;;;17.80;99.90;;;;;;5033406;28;20322;-72
2022/02/06 13:10:54;;;;;;;;;;;17.70;99.90;;;;;;5033137;28;20332;-72
2022/02/06 13:13:25;;;;;;;;;;;17.50;99.90;;;;;;5033195;28;19909;-72
2022/02/06 13:16:04;;;;;;;;;;;17.40;99.90;;;;;;5033079;28;19952;-72
2022/02/06 13:23:52;;;;;;;;;;;17.40;99.90;;;;;;5033210;28;19971;-71
2022/02/06 13:26:31;;;;;;;;;;;17.40;99.90;;;;;;5032967;28;19927;-71
2022/02/06 13:29:15;;;;;;;;;;;17.40;99.90;;;;;;5033057;28;20009;-71
2022/02/06 13:32:21;;;;;;;;;;;17.40;99.90;;;;;;5032868;28;19916;-71
2022/02/06 13:34:55;;;;;;;;;;;17.50;99.90;;;;;;5033359;28;19913;-72
2022/02/06 13:37:41;;;;;;;;;;;17.40;99.90;;;;;;5032790;28;19910;-72
2022/02/06 13:40:14;;;;;;;;;;;17.50;99.90;;;;;;5032410;28;19923;-72
2022/02/06 13:42:54;;;;;;;;;;;17.40;99.90;;;;;;5032680;28;20008;-72
2022/02/06 13:45:23;;;;;;;;;;;17.50;99.90;;;;;;5032685;28;19952;-72
2022/02/06 13:47:51;;;;;;;;;;;17.50;99.90;;;;;;5032422;28;19934;-72
2022/02/06 13:50:18;;;;;;;;;;;17.50;99.90;;;;;;5032805;28;19960;-72
2022/02/06 13:52:46;;;;;;;;;;;17.50;99.90;;;;;;5032757;28;20368;-70
2022/02/06 13:55:13;;;;;;;;;;;17.50;99.90;;;;;;5032709;28;20031;-71
2022/02/06 13:57:41;;;;;;;;;;;17.50;99.90;;;;;;5032611;28;19909;-71
2022/02/06 14:00:14;;;;;;;;;;;17.40;99.90;;;;;;5061890;28;20575;-72
2022/02/06 14:02:53;;;;;;;;;;;17.40;99.90;;;;;;5072288;28;19915;-71
2022/02/06 14:05:25;;;;;;;;;;;17.30;99.90;;;;;;5072403;28;20283;-72
2022/02/06 14:08:13;;;;;;;;;;;17.20;99.90;;;;;;5072146;28;20321;-72
2022/02/06 14:11:01;;;;;;;;;;;17.30;99.90;;;;;;5072203;28;19966;-71
2022/02/06 14:13:28;;;;;;;;;;;17.30;99.90;;;;;;5072383;28;19908;-71
2022/02/06 14:16:14;;;;;;;;;;;17.00;99.90;;;;;;5072143;28;19909;-71
2022/02/06 14:18:51;;;;;;;;;;;16.70;99.90;;;;;;5072083;28;19908;-71
2022/02/06 14:21:18;;;;;;;;;;;16.70;99.90;;;;;;5072390;28;20351;-71
2022/02/06 14:24:01;;;;;;;;;;;16.70;99.90;;;;;;5072169;28;20355;-71
2022/02/06 14:26:28;;;;;;;;;;;16.70;99.90;;;;;;5072261;28;19916;-72
2022/02/06 14:28:54;;;;;;;;;;;16.80;99.90;;;;;;5072184;28;19915;-73
2022/02/06 14:31:22;;;;;;;;;;;16.90;99.90;;;;;;5072405;28;20244;-72
2022/02/06 14:33:48;;;;;;;;;;;16.90;99.90;;;;;;5071855;28;19908;-72
2022/02/06 14:36:21;;;;;;;;;;;17.00;99.90;;;;;;5072042;28;20680;-72
2022/02/06 14:38:52;;;;;;;;;;;17.00;99.90;;;;;;5072114;28;19908;-72
2022/02/06 14:44:13;;;;;;;;;;;17.10;99.90;;;;;;5071840;28;19909;-71
2022/02/06 14:46:39;;;;;;;;;;;17.20;99.90;;;;;;5072051;28;19917;-71
2022/02/06 14:49:09;;;;;;;;;;;17.20;99.90;;;;;;5071852;28;20251;-71
2022/02/06 14:51:36;;;;;;;;;;;17.20;99.90;;;;;;5072035;28;19908;-71
2022/02/06 14:54:05;;;;;;;;;;;17.30;99.90;;;;;;5073698;28;19920;-72
2022/02/06 14:56:33;;;;;;;;;;;17.30;99.90;;;;;;5075621;28;19909;-72
2022/02/06 14:59:00;;;;;;;;;;;17.30;99.90;;;;;;5075584;28;19999;-72
2022/02/06 15:01:27;;;;;;;;;;;17.30;99.90;;;;;;5075755;28;19908;-71
2022/02/06 15:03:54;;;;;;;;;;;17.20;99.90;;;;;;5075283;28;19957;-71
2022/02/06 15:06:20;;;;;;;;;;;17.20;99.90;;;;;;5075512;28;19932;-72
2022/02/06 15:08:47;;;;;;;;;;;17.20;99.90;;;;;;5075365;28;19915;-72
2022/02/06 15:11:14;;;;;;;;;;;17.30;99.90;;;;;;5075449;28;20290;-72
2022/02/06 15:13:40;;;;;;;;;;;17.30;99.90;;;;;;5075251;28;19908;-71
2022/02/06 15:16:15;;;;;;;;;;;17.40;99.90;;;;;;5075153;28;19908;-71
2022/02/06 15:18:52;;;;;;;;;;;17.60;99.90;;;;;;5075217;28;20383;-71
2022/02/06 15:21:19;;;;;;;;;;;17.70;99.90;;;;;;5075330;28;19916;-72
2022/02/06 15:23:45;;;;;;;;;;;17.70;99.90;;;;;;5075180;28;20271;-71
2022/02/06 15:26:12;;;;;;;;;;;17.80;99.90;;;;;;5075034;28;19921;-72
2022/02/06 15:28:39;;;;;;;;;;;17.80;99.90;;;;;;5075366;28;19955;-71
2022/02/06 15:31:05;;;;;;;;;;;17.60;99.90;;;;;;5075084;28;19912;-71
2022/02/06 15:33:32;;;;;;;;;;;17.50;99.90;;;;;;5075153;28;19908;-71
2022/02/06 15:35:59;;;;;;;;;;;17.40;99.90;;;;;;5074859;28;19908;-71
2022/02/06 15:38:29;;;;;;;;;;;17.30;99.90;;;;;;5074920;28;19977;-71
2022/02/06 15:41:00;;;;;;;;;;;17.30;99.90;;;;;;5074819;28;19944;-71
2022/02/06 15:43:27;;;;;;;;;;;17.40;99.90;;;;;;5075067;28;19908;-71
2022/02/06 15:45:53;;;;;;;;;;;17.30;99.90;;;;;;5074394;28;19921;-71
2022/02/06 15:48:20;;;;;;;;;;;17.30;99.90;;;;;;5074711;28;19912;-71
2022/02/06 15:50:48;;;;;;;;;;;17.30;99.90;;;;;;5074872;28;19908;-72
2022/02/06 15:53:15;;;;;;;;;;;17.30;99.90;;;;;;5074773;28;20286;-72
2022/02/06 15:55:42;;;;;;;;;;;17.20;99.90;;;;;;5074550;28;19986;-72
2022/02/06 15:58:09;;;;;;;;;;;17.10;99.90;;;;;;5074715;28;19930;-71
2022/02/06 16:00:35;;;;;;;;;;;17.00;99.90;;;;;;5074485;28;19927;-72
2022/02/06 16:03:02;;;;;;;;;;;17.00;99.90;;;;;;5074677;28;19908;-73
2022/02/06 16:05:29;;;;;;;;;;;16.90;99.90;;;;;;5074291;28;19916;-72
2022/02/06 16:07:55;;;;;;;;;;;17.00;99.90;;;;;;5085209;28;19909;-72
2022/02/06 16:10:22;;;;;;;;;;;17.00;99.90;;;;;;5086497;28;19923;-72
2022/02/06 16:12:49;;;;;;;;;;;16.90;99.90;;;;;;5086140;28;19935;-73
2022/02/06 16:15:16;;;;;;;;;;;16.90;99.90;;;;;;5082916;28;19908;-72
2022/02/06 16:17:42;;;;;;;;;;;16.90;99.90;;;;;;5075984;28;19962;-72
2022/02/06 16:20:14;;;;;;;;;;;16.90;99.90;;;;;;5074197;28;20007;-72
2022/02/06 16:22:41;;;;;;;;;;;17.10;99.90;;;;;;5074379;28;19936;-72
2022/02/06 16:25:08;;;;;;;;;;;17.10;99.90;;;;;;5074102;28;19923;-72
2022/02/06 16:27:35;;;;;;;;;;;17.10;99.90;;;;;;5074040;28;19953;-72
2022/02/06 16:30:02;;;;;;;;;;;17.20;99.90;;;;;;5073830;28;19908;-72
2022/02/06 16:32:29;;;;;;;;;;;17.10;99.90;;;;;;5073806;28;19908;-72
2022/02/06 16:34:56;;;;;;;;;;;17.00;99.90;;;;;;5073845;28;20283;-72
2022/02/06 16:37:22;;;;;;;;;;;17.10;99.90;;;;;;5073882;28;19908;-72
2022/02/06 16:39:49;;;;;;;;;;;17.00;99.90;;;;;;5073632;28;20378;-72
2022/02/06 16:42:17;;;;;;;;;;;17.10;99.90;;;;;;5072507;28;19915;-71
2022/02/06 16:44:44;;;;;;;;;;;17.00;99.90;;;;;;5073833;28;20019;-71
2022/02/06 16:47:11;;;;;;;;;;;17.10;99.90;;;;;;5073451;28;19908;-72
2022/02/06 16:49:38;;;;;;;;;;;17.10;99.90;;;;;;5073485;28;19943;-71
2022/02/06 16:52:05;;;;;;;;;;;17.20;99.90;;;;;;5073312;28;19995;-72
2022/02/06 16:54:32;;;;;;;;;;;17.30;99.90;;;;;;5073376;28;19915;-72